Time,TemperatureF,DewpointF,PressureIn,WindDirection,WindDirectionDegrees,WindSpeedMPH,WindSpeedGustMPH,Humidity,HourlyPrecipIn,Conditions,Clouds,dailyrainin,SoftwareType,DateUTC
2013-03-15 00:03:00,48.9,39.9,30.09,ENE,68,0.0,0.0,71,0.00,,---,0.00,VWS V14.01,2013-03-15 07:03:00,
2013-03-15 00:08:00,48.7,39.8,30.09,ENE,68,0.0,0.0,71,0.00,,---,0.00,VWS V14.01,2013-03-15 07:08:00,
2013-03-15 00:13:00,48.7,39.8,30.09,South,180,0.0,0.0,71,0.00,,---,0.00,VWS V14.01,2013-03-15 07:13:00,
2013-03-15 00:18:00,48.6,40.0,30.09,South,180,0.0,0.0,72,0.00,,---,0.00,VWS V14.01,2013-03-15 07:18:00,
2013-03-15 00:23:00,48.4,39.8,30.09,East,90,0.0,0.0,72,0.00,,---,0.00,VWS V14.01,2013-03-15 07:23:00,
2013-03-15 00:28:00,48.4,39.8,30.09,East,90,0.0,0.0,72,0.00,,---,0.00,VWS V14.01,2013-03-15 07:28:00,
2013-03-15 00:33:00,48.4,39.8,30.09,East,90,0.0,0.0,72,0.00,,---,0.00,VWS V14.01,2013-03-15 07:33:00,
2013-03-15 00:38:00,48.4,39.8,30.09,East,90,0.0,0.0,72,0.00,,---,0.00,VWS V14.01,2013-03-15 07:38:00,
2013-03-15 00:43:00,48.2,39.6,30.09,East,90,0.0,0.0,72,0.00,,---,0.00,VWS V14.01,2013-03-15 07:43:00,
2013-03-15 00:49:00,48.2,39.6,30.09,SE,135,0.0,0.0,72,0.00,,---,0.00,VWS V14.01,2013-03-15 07:49:00,
2013-03-15 00:54:00,48.2,39.6,30.09,SE,135,0.0,0.0,72,0.00,,---,0.00,VWS V14.01,2013-03-15 07:54:00,
2013-03-15 00:59:00,48.2,39.6,30.09,SE,135,0.0,0.0,72,0.00,,---,0.00,VWS V14.01,2013-03-15 07:59:00,
2013-03-15 01:04:00,48.2,39.6,30.09,SE,135,0.0,0.0,72,0.00,,---,0.00,VWS V14.01,2013-03-15 08:04:00,
2013-03-15 01:09:00,47.8,39.6,30.09,SE,135,0.0,0.0,73,0.00,,---,0.00,VWS V14.01,2013-03-15 08:09:00,
2013-03-15 01:14:00,47.8,39.6,30.09,SE,135,0.0,0.0,73,0.00,,---,0.00,VWS V14.01,2013-03-15 08:14:00,
2013-03-15 01:19:00,47.8,39.6,30.09,NNW,338,0.0,0.0,73,0.00,,---,0.00,VWS V14.01,2013-03-15 08:19:00,
2013-03-15 01:24:00,47.7,39.4,30.09,NNW,338,0.0,0.0,73,0.00,,---,0.00,VWS V14.01,2013-03-15 08:24:00,
2013-03-15 01:29:00,47.5,39.3,30.09,NNW,338,0.0,0.0,73,0.00,,---,0.00,VWS V14.01,2013-03-15 08:29:00,
2013-03-15 01:34:00,47.3,39.1,30.09,NNW,338,0.0,0.0,73,0.00,,---,0.00,VWS V14.01,2013-03-15 08:34:00,
2013-03-15 01:39:00,47.1,38.9,30.09,NNW,338,0.0,0.0,73,0.00,,---,0.00,VWS V14.01,2013-03-15 08:39:00,
2013-03-15 01:44:00,47.1,38.9,30.09,SE,135,0.0,0.0,73,0.00,,---,0.00,VWS V14.01,2013-03-15 08:44:00,
2013-03-15 01:49:00,47.1,38.9,30.09,ESE,112,0.0,0.0,73,0.00,,---,0.00,VWS V14.01,2013-03-15 08:49:00,
2013-03-15 01:54:00,46.9,38.8,30.09,ESE,112,0.0,0.0,73,0.00,,---,0.00,VWS V14.01,2013-03-15 08:54:00,
2013-03-15 01:59:00,46.8,38.6,30.09,NNE,22,0.0,0.0,73,0.00,,---,0.00,VWS V14.01,2013-03-15 08:59:00,
2013-03-15 02:04:00,46.8,38.6,30.09,NNE,22,0.0,0.0,73,0.00,,---,0.00,VWS V14.01,2013-03-15 09:04:00,
2013-03-15 02:09:00,46.6,38.4,30.09,NNE,22,0.0,0.0,73,0.00,,---,0.00,VWS V14.01,2013-03-15 09:09:00,
2013-03-15 02:14:00,46.6,38.4,30.09,NNE,22,0.0,0.0,73,0.00,,---,0.00,VWS V14.01,2013-03-15 09:14:00,
2013-03-15 02:20:00,46.6,38.4,30.09,NNE,22,0.0,0.0,73,0.00,,---,0.00,VWS V14.01,2013-03-15 09:20:00,
2013-03-15 02:25:00,46.6,38.4,30.09,NNE,22,0.0,0.0,73,0.00,,---,0.00,VWS V14.01,2013-03-15 09:25:00,
2013-03-15 02:30:00,46.6,38.4,30.09,NNE,22,0.0,0.0,73,0.00,,---,0.00,VWS V14.01,2013-03-15 09:30:00,
2013-03-15 02:35:00,46.6,38.4,30.09,NNE,22,0.0,0.0,73,0.00,,---,0.00,VWS V14.01,2013-03-15 09:35:00,
2013-03-15 02:40:00,46.6,38.4,30.09,NNE,22,0.0,0.0,73,0.00,,---,0.00,VWS V14.01,2013-03-15 09:40:00,
2013-03-15 02:45:00,46.6,38.4,30.09,NNE,22,0.0,0.0,73,0.00,,---,0.00,VWS V14.01,2013-03-15 09:45:00,
2013-03-15 02:50:00,46.6,38.4,30.09,NNE,22,0.0,0.0,73,0.00,,---,0.00,VWS V14.01,2013-03-15 09:50:00,
2013-03-15 02:55:00,46.6,38.4,30.09,NNE,22,0.0,0.0,73,0.00,,---,0.00,VWS V14.01,2013-03-15 09:55:00,
2013-03-15 03:00:00,46.6,38.4,30.09,NNE,22,0.0,0.0,73,0.00,,---,0.00,VWS V14.01,2013-03-15 10:00:00,
2013-03-15 03:05:00,46.6,38.4,30.09,NNE,22,0.0,0.0,73,0.00,,---,0.00,VWS V14.01,2013-03-15 10:05:00,
2013-03-15 03:10:00,46.6,38.4,30.09,NNE,22,0.0,0.0,73,0.00,,---,0.00,VWS V14.01,2013-03-15 10:10:00,
2013-03-15 03:15:00,46.6,38.4,30.09,NNE,22,0.0,0.0,73,0.00,,---,0.00,VWS V14.01,2013-03-15 10:15:00,
2013-03-15 03:20:00,45.9,38.4,30.12,NNE,22,0.0,0.0,75,0.00,,---,0.00,VWS V14.01,2013-03-15 10:20:00,
2013-03-15 03:26:00,45.9,38.4,30.12,NNE,22,0.0,0.0,75,0.00,,---,0.00,VWS V14.01,2013-03-15 10:26:00,
2013-03-15 03:31:00,45.9,38.4,30.12,NNE,22,0.0,0.0,75,0.00,,---,0.00,VWS V14.01,2013-03-15 10:31:00,
2013-03-15 03:36:00,45.9,38.4,30.12,NNE,22,0.0,0.0,75,0.00,,---,0.00,VWS V14.01,2013-03-15 10:36:00,
2013-03-15 03:41:00,45.9,38.4,30.12,NNE,22,0.0,0.0,75,0.00,,---,0.00,VWS V14.01,2013-03-15 10:41:00,
2013-03-15 03:47:00,45.9,38.4,30.09,NNE,22,0.0,0.0,75,0.00,,---,0.00,VWS V14.01,2013-03-15 10:47:00,
2013-03-15 03:52:00,45.9,38.4,30.09,NNE,22,0.0,0.0,75,0.00,,---,0.00,VWS V14.01,2013-03-15 10:52:00,
2013-03-15 03:57:00,45.9,38.4,30.09,NNE,22,0.0,0.0,75,0.00,,---,0.00,VWS V14.01,2013-03-15 10:57:00,
2013-03-15 04:02:00,45.9,38.4,30.09,NNE,22,0.0,0.0,75,0.00,,---,0.00,VWS V14.01,2013-03-15 11:02:00,
2013-03-15 04:07:00,45.9,38.4,30.09,NNE,22,0.0,0.0,75,0.00,,---,0.00,VWS V14.01,2013-03-15 11:07:00,
2013-03-15 04:12:00,45.9,38.4,30.09,NNE,22,0.0,0.0,75,0.00,,---,0.00,VWS V14.01,2013-03-15 11:12:00,
2013-03-15 04:17:00,45.9,38.4,30.09,NNE,22,0.0,0.0,75,0.00,,---,0.00,VWS V14.01,2013-03-15 11:17:00,
2013-03-15 04:23:00,45.9,38.4,30.06,NNE,22,0.0,0.0,75,0.00,,---,0.00,VWS V14.01,2013-03-15 11:23:00,
2013-03-15 04:28:00,45.9,38.4,30.06,NNE,22,0.0,0.0,75,0.00,,---,0.00,VWS V14.01,2013-03-15 11:28:00,
2013-03-15 04:33:00,45.9,38.4,30.06,NNE,22,0.0,0.0,75,0.00,,---,0.00,VWS V14.01,2013-03-15 11:33:00,
2013-03-15 04:38:00,45.9,38.4,30.06,NNE,22,0.0,0.0,75,0.00,,---,0.00,VWS V14.01,2013-03-15 11:38:00,
2013-03-15 04:43:00,45.9,38.4,30.06,NNE,22,0.0,0.0,75,0.00,,---,0.00,VWS V14.01,2013-03-15 11:43:00,
2013-03-15 04:48:00,45.9,38.4,30.06,NNE,22,0.0,0.0,75,0.00,,---,0.00,VWS V14.01,2013-03-15 11:48:00,
2013-03-15 04:53:00,45.9,38.4,30.06,NNE,22,0.0,0.0,75,0.00,,---,0.00,VWS V14.01,2013-03-15 11:53:00,
2013-03-15 04:58:00,45.9,38.4,30.06,NNE,22,0.0,0.0,75,0.00,,---,0.00,VWS V14.01,2013-03-15 11:58:00,
2013-03-15 05:03:00,45.9,38.4,30.06,NNE,22,0.0,0.0,75,0.00,,---,0.00,VWS V14.01,2013-03-15 12:03:00,
2013-03-15 05:08:00,45.9,38.4,30.06,NNE,22,0.0,0.0,75,0.00,,---,0.00,VWS V14.01,2013-03-15 12:08:00,
2013-03-15 05:13:00,45.9,38.4,30.06,NNE,22,0.0,0.0,75,0.00,,---,0.00,VWS V14.01,2013-03-15 12:13:00,
2013-03-15 05:18:00,45.9,38.4,30.06,NNE,22,0.0,0.0,75,0.00,,---,0.00,VWS V14.01,2013-03-15 12:18:00,
2013-03-15 05:23:00,45.5,38.0,30.06,NNE,22,0.0,0.0,75,0.00,,---,0.00,VWS V14.01,2013-03-15 12:23:00,
2013-03-15 05:28:00,45.5,38.0,30.06,NNE,22,0.0,0.0,75,0.00,,---,0.00,VWS V14.01,2013-03-15 12:28:00,
2013-03-15 05:33:00,45.5,38.0,30.06,NNE,22,0.0,0.0,75,0.00,,---,0.00,VWS V14.01,2013-03-15 12:33:00,
2013-03-15 05:38:00,45.5,38.0,30.06,NNE,22,0.0,0.0,75,0.00,,---,0.00,VWS V14.01,2013-03-15 12:38:00,
2013-03-15 05:43:00,45.3,37.9,30.06,NNE,22,0.0,0.0,75,0.00,,---,0.00,VWS V14.01,2013-03-15 12:43:00,
2013-03-15 05:48:00,45.3,37.9,30.06,NNE,22,0.0,0.0,75,0.00,,---,0.00,VWS V14.01,2013-03-15 12:48:00,
2013-03-15 05:53:00,45.3,37.9,30.06,NNE,22,0.0,0.0,75,0.00,,---,0.00,VWS V14.01,2013-03-15 12:53:00,
2013-03-15 05:58:00,45.3,37.9,30.06,NNE,22,0.0,0.0,75,0.00,,---,0.00,VWS V14.01,2013-03-15 12:58:00,
2013-03-15 06:03:00,45.3,37.9,30.09,NNE,22,0.0,0.0,75,0.00,,---,0.00,VWS V14.01,2013-03-15 13:03:00,
2013-03-15 06:09:00,45.3,37.9,30.09,NNE,22,0.0,0.0,75,0.00,,---,0.00,VWS V14.01,2013-03-15 13:09:00,
2013-03-15 06:14:00,45.3,37.9,30.09,NNE,22,0.0,0.0,75,0.00,,---,0.00,VWS V14.01,2013-03-15 13:14:00,
2013-03-15 06:19:00,45.3,37.9,30.09,NNE,22,0.0,0.0,75,0.00,,---,0.00,VWS V14.01,2013-03-15 13:19:00,
2013-03-15 06:24:00,45.3,37.9,30.09,NNE,22,0.0,0.0,75,0.00,,---,0.00,VWS V14.01,2013-03-15 13:24:00,
2013-03-15 06:29:00,45.3,37.9,30.09,NNE,22,0.0,0.0,75,0.00,,---,0.00,VWS V14.01,2013-03-15 13:29:00,
2013-03-15 06:34:00,45.3,37.9,30.09,NNE,22,0.0,0.0,75,0.00,,---,0.00,VWS V14.01,2013-03-15 13:34:00,
2013-03-15 06:39:00,45.3,38.2,30.09,NNE,22,0.0,0.0,76,0.00,,---,0.00,VWS V14.01,2013-03-15 13:39:00,
2013-03-15 06:44:00,45.1,38.0,30.09,NNE,22,0.0,0.0,76,0.00,,---,0.00,VWS V14.01,2013-03-15 13:44:00,
2013-03-15 06:49:00,45.1,37.7,30.09,NNE,22,0.0,0.0,75,0.00,,---,0.00,VWS V14.01,2013-03-15 13:49:00,
2013-03-15 06:54:00,45.1,37.7,30.09,NNE,22,0.0,0.0,75,0.00,,---,0.00,VWS V14.01,2013-03-15 13:54:00,
2013-03-15 06:59:00,45.1,38.0,30.09,NNE,22,0.0,0.0,76,0.00,,---,0.00,VWS V14.01,2013-03-15 13:59:00,
2013-03-15 07:04:00,45.1,38.0,30.09,NNE,22,0.0,0.0,76,0.00,,---,0.00,VWS V14.01,2013-03-15 14:04:00,
2013-03-15 07:09:00,45.1,38.0,30.09,NNE,22,0.0,0.0,76,0.00,,---,0.00,VWS V14.01,2013-03-15 14:09:00,
2013-03-15 07:15:00,45.1,38.0,30.09,NNE,22,0.0,0.0,76,0.00,,---,0.00,VWS V14.01,2013-03-15 14:15:00,
2013-03-15 07:20:00,45.1,38.0,30.06,NNE,22,0.0,0.0,76,0.00,,---,0.00,VWS V14.01,2013-03-15 14:20:00,
2013-03-15 07:25:00,45.1,38.0,30.06,NNE,22,0.0,0.0,76,0.00,,---,0.00,VWS V14.01,2013-03-15 14:25:00,
2013-03-15 07:30:00,45.3,38.2,30.06,NNE,22,0.0,0.0,76,0.00,,---,0.00,VWS V14.01,2013-03-15 14:30:00,
2013-03-15 07:35:00,45.5,38.4,30.09,NNE,22,0.0,0.0,76,0.00,,---,0.00,VWS V14.01,2013-03-15 14:35:00,
2013-03-15 07:40:00,45.5,38.4,30.09,NNE,22,0.0,0.0,76,0.00,,---,0.00,VWS V14.01,2013-03-15 14:40:00,
2013-03-15 07:45:00,45.5,38.4,30.09,NNE,22,0.0,0.0,76,0.00,,---,0.00,VWS V14.01,2013-03-15 14:45:00,
2013-03-15 07:50:00,45.5,38.4,30.09,NNE,22,0.0,0.0,76,0.00,,---,0.00,VWS V14.01,2013-03-15 14:50:00,
2013-03-15 07:55:00,45.5,38.4,30.09,NNE,22,0.0,0.0,76,0.00,,---,0.00,VWS V14.01,2013-03-15 14:55:00,
2013-03-15 08:00:00,45.5,38.4,30.09,NNE,22,0.0,0.0,76,0.00,,---,0.00,VWS V14.01,2013-03-15 15:00:00,
2013-03-15 08:05:00,46.0,39.2,30.06,NNE,22,0.0,0.0,77,0.00,,---,0.00,VWS V14.01,2013-03-15 15:05:00,
2013-03-15 08:10:00,46.0,39.2,30.06,NNE,22,0.0,0.0,77,0.00,,---,0.00,VWS V14.01,2013-03-15 15:10:00,
2013-03-15 08:15:00,46.0,39.2,30.06,NNE,22,0.0,0.0,77,0.00,,---,0.00,VWS V14.01,2013-03-15 15:15:00,
2013-03-15 08:21:00,46.0,39.2,30.06,NNE,22,0.0,0.0,77,0.00,,---,0.00,VWS V14.01,2013-03-15 15:21:00,
2013-03-15 08:27:00,46.6,39.4,30.06,NNE,22,0.0,0.0,76,0.00,,---,0.00,VWS V14.01,2013-03-15 15:27:00,
2013-03-15 08:32:00,46.8,39.6,30.06,North,0,0.0,0.0,76,0.00,,---,0.00,VWS V14.01,2013-03-15 15:32:00,
2013-03-15 08:38:00,46.8,39.6,30.09,North,0,0.0,0.0,76,0.00,,---,0.00,VWS V14.01,2013-03-15 15:38:00,
2013-03-15 08:43:00,47.3,40.1,30.09,North,0,0.0,0.0,76,0.00,,---,0.00,VWS V14.01,2013-03-15 15:43:00,
2013-03-15 08:48:00,47.3,40.1,30.09,North,0,0.0,0.0,76,0.00,,---,0.00,VWS V14.01,2013-03-15 15:48:00,
2013-03-15 08:53:00,47.3,40.1,30.09,North,0,0.0,0.0,76,0.00,,---,0.00,VWS V14.01,2013-03-15 15:53:00,
2013-03-15 08:58:00,48.0,40.8,30.09,NNE,22,0.0,0.0,76,0.00,,---,0.00,VWS V14.01,2013-03-15 15:58:00,
2013-03-15 09:03:00,48.2,40.7,30.09,NNW,338,0.0,0.0,75,0.00,,---,0.00,VWS V14.01,2013-03-15 16:03:00,
2013-03-15 09:08:00,48.4,40.8,30.09,NW,315,0.9,0.9,75,0.00,,---,0.00,VWS V14.01,2013-03-15 16:08:00,
2013-03-15 09:14:00,48.6,41.0,30.09,NW,315,2.0,2.9,75,0.00,,---,0.00,VWS V14.01,2013-03-15 16:14:00,
2013-03-15 09:19:00,48.9,41.4,30.12,North,0,1.6,1.6,75,0.00,,---,0.00,VWS V14.01,2013-03-15 16:19:00,
2013-03-15 09:24:00,49.1,41.5,30.12,NNE,22,0.0,1.3,75,0.00,,---,0.00,VWS V14.01,2013-03-15 16:24:00,
2013-03-15 09:29:00,49.3,41.7,30.12,NE,45,0.0,0.9,75,0.00,,---,0.00,VWS V14.01,2013-03-15 16:29:00,
2013-03-15 09:34:00,50.0,42.0,30.09,NE,45,1.3,1.6,74,0.00,,---,0.00,VWS V14.01,2013-03-15 16:34:00,
2013-03-15 09:39:00,50.0,42.0,30.09,NW,315,2.5,2.5,74,0.00,,---,0.00,VWS V14.01,2013-03-15 16:39:00,
2013-03-15 09:44:00,50.0,42.0,30.09,WNW,292,1.1,1.3,74,0.00,,---,0.00,VWS V14.01,2013-03-15 16:44:00,
2013-03-15 09:49:00,50.0,42.0,30.12,West,270,0.0,0.9,74,0.00,,---,0.00,VWS V14.01,2013-03-15 16:49:00,
2013-03-15 09:54:00,51.1,43.1,30.12,SW,225,1.1,1.1,74,0.00,,---,0.00,VWS V14.01,2013-03-15 16:54:00,
2013-03-15 09:59:00,51.1,43.1,30.12,West,270,1.3,1.6,74,0.00,,---,0.00,VWS V14.01,2013-03-15 16:59:00,
2013-03-15 10:04:00,51.1,43.1,30.12,West,270,1.1,1.3,74,0.00,,---,0.00,VWS V14.01,2013-03-15 17:04:00,
2013-03-15 10:09:00,51.1,43.1,30.12,West,270,0.0,0.0,74,0.00,,---,0.00,VWS V14.01,2013-03-15 17:09:00,
2013-03-15 10:14:00,51.1,43.1,30.12,ESE,112,0.0,0.9,74,0.00,,---,0.00,VWS V14.01,2013-03-15 17:14:00,
2013-03-15 10:19:00,51.1,43.1,30.12,East,90,1.1,2.0,74,0.00,,---,0.00,VWS V14.01,2013-03-15 17:19:00,
2013-03-15 10:25:00,51.1,43.1,30.12,NNW,338,0.0,0.0,74,0.00,,---,0.00,VWS V14.01,2013-03-15 17:25:00,
2013-03-15 10:30:00,51.1,43.1,30.12,SW,225,0.9,1.3,74,0.00,,---,0.00,VWS V14.01,2013-03-15 17:30:00,
2013-03-15 10:35:00,55.4,46.2,30.12,NW,315,0.0,0.0,71,0.00,,---,0.00,VWS V14.01,2013-03-15 17:35:00,
2013-03-15 10:40:00,56.3,47.0,30.12,West,270,1.1,2.5,71,0.00,,---,0.00,VWS V14.01,2013-03-15 17:40:00,
2013-03-15 10:45:00,56.5,47.2,30.12,WNW,292,2.2,2.2,71,0.00,,---,0.00,VWS V14.01,2013-03-15 17:45:00,
2013-03-15 10:50:00,56.8,47.5,30.12,West,270,1.3,2.0,71,0.00,,---,0.00,VWS V14.01,2013-03-15 17:50:00,
2013-03-15 10:55:00,56.8,47.5,30.12,NNW,338,1.3,1.3,71,0.00,,---,0.00,VWS V14.01,2013-03-15 17:55:00,
2013-03-15 11:00:00,56.8,47.5,30.12,SSE,158,0.0,2.0,71,0.00,,---,0.00,VWS V14.01,2013-03-15 18:00:00,
2013-03-15 11:05:00,57.6,47.9,30.12,ESE,112,0.9,1.1,70,0.00,,---,0.00,VWS V14.01,2013-03-15 18:05:00,
2013-03-15 11:11:00,57.9,48.2,30.12,West,270,0.0,2.0,70,0.00,,---,0.00,VWS V14.01,2013-03-15 18:11:00,
2013-03-15 11:16:00,58.3,48.2,30.12,SE,135,0.0,1.3,69,0.00,,---,0.00,VWS V14.01,2013-03-15 18:16:00,
2013-03-15 11:21:00,58.6,48.5,30.09,SW,225,2.9,2.9,69,0.00,,---,0.00,VWS V14.01,2013-03-15 18:21:00,
2013-03-15 11:26:00,59.2,48.6,30.09,West,270,2.9,2.9,68,0.00,,---,0.00,VWS V14.01,2013-03-15 18:26:00,
2013-03-15 11:31:00,59.5,49.0,30.09,NW,315,2.0,3.4,68,0.00,,---,0.00,VWS V14.01,2013-03-15 18:31:00,
2013-03-15 11:37:00,59.7,49.2,30.09,NE,45,0.0,2.7,68,0.00,,---,0.00,VWS V14.01,2013-03-15 18:37:00,
2013-03-15 11:42:00,60.3,49.3,30.09,East,90,1.6,1.6,67,0.00,,---,0.00,VWS V14.01,2013-03-15 18:42:00,
2013-03-15 11:47:00,60.3,49.3,30.09,WNW,292,3.6,3.6,67,0.00,,---,0.00,VWS V14.01,2013-03-15 18:47:00,
2013-03-15 11:52:00,61.0,50.0,30.09,SW,225,0.0,1.3,67,0.00,,---,0.00,VWS V14.01,2013-03-15 18:52:00,
2013-03-15 11:57:00,61.9,50.4,30.09,NNE,22,1.6,3.6,66,0.00,,---,0.00,VWS V14.01,2013-03-15 18:57:00,
2013-03-15 12:02:00,62.1,50.2,30.09,NNW,338,0.0,0.0,65,0.00,,---,0.00,VWS V14.01,2013-03-15 19:02:00,
2013-03-15 12:07:00,62.6,50.7,30.09,SW,225,1.6,3.6,65,0.00,,---,0.00,VWS V14.01,2013-03-15 19:07:00,
2013-03-15 12:12:00,63.3,51.4,30.09,West,270,1.1,1.1,65,0.00,,---,0.00,VWS V14.01,2013-03-15 19:12:00,
2013-03-15 12:17:00,63.7,51.3,30.09,NNW,338,1.6,1.6,64,0.00,,---,0.00,VWS V14.01,2013-03-15 19:17:00,
2013-03-15 12:23:00,63.7,51.3,30.09,North,0,1.1,3.1,64,0.00,,---,0.00,VWS V14.01,2013-03-15 19:23:00,
2013-03-15 12:28:00,64.9,52.5,30.09,South,180,0.0,0.0,64,0.00,,---,0.00,VWS V14.01,2013-03-15 19:28:00,
2013-03-15 12:33:00,65.3,52.8,30.09,NW,315,1.6,1.6,64,0.00,,---,0.00,VWS V14.01,2013-03-15 19:33:00,
2013-03-15 12:38:00,65.8,52.9,30.09,NNW,338,2.7,2.7,63,0.00,,---,0.00,VWS V14.01,2013-03-15 19:38:00,
2013-03-15 12:43:00,65.8,52.9,30.09,NW,315,1.6,3.1,63,0.00,,---,0.00,VWS V14.01,2013-03-15 19:43:00,
2013-03-15 12:48:00,65.8,52.9,30.06,West,270,0.0,0.0,63,0.00,,---,0.00,VWS V14.01,2013-03-15 19:48:00,
2013-03-15 12:53:00,66.7,53.3,30.06,WNW,292,2.9,2.9,62,0.00,,---,0.00,VWS V14.01,2013-03-15 19:53:00,
2013-03-15 12:58:00,67.3,53.4,30.06,NNE,22,0.0,1.3,61,0.00,,---,0.00,VWS V14.01,2013-03-15 19:58:00,
2013-03-15 13:03:00,67.6,53.3,30.06,SE,135,2.9,2.9,60,0.00,,---,0.00,VWS V14.01,2013-03-15 20:03:00,
2013-03-15 13:08:00,68.2,52.9,30.06,SSE,158,1.3,1.6,58,0.00,,---,0.00,VWS V14.01,2013-03-15 20:08:00,
2013-03-15 13:13:00,68.9,52.1,30.06,West,270,3.8,3.8,55,0.00,,---,0.00,VWS V14.01,2013-03-15 20:13:00,
2013-03-15 13:19:00,69.4,53.6,30.06,South,180,3.1,3.4,57,0.00,,---,0.00,VWS V14.01,2013-03-15 20:19:00,
2013-03-15 13:24:00,70.5,54.1,30.06,NW,315,1.3,3.1,56,0.00,,---,0.00,VWS V14.01,2013-03-15 20:24:00,
2013-03-15 13:29:00,70.5,54.1,30.06,South,180,2.5,3.1,56,0.00,,---,0.00,VWS V14.01,2013-03-15 20:29:00,
2013-03-15 13:34:00,71.2,53.8,30.06,WNW,292,4.0,4.0,54,0.00,,---,0.00,VWS V14.01,2013-03-15 20:34:00,
2013-03-15 13:39:00,72.0,53.9,30.06,West,270,3.6,5.6,53,0.00,,---,0.00,VWS V14.01,2013-03-15 20:39:00,
2013-03-15 13:44:00,72.3,54.2,30.06,West,270,1.6,2.0,53,0.00,,---,0.00,VWS V14.01,2013-03-15 20:44:00,
2013-03-15 13:49:00,73.2,54.0,30.06,West,270,3.6,3.6,51,0.00,,---,0.00,VWS V14.01,2013-03-15 20:49:00,
2013-03-15 13:54:00,73.8,55.1,30.06,SW,225,2.9,3.1,52,0.00,,---,0.00,VWS V14.01,2013-03-15 20:54:00,
2013-03-15 13:59:00,74.3,55.6,30.06,WNW,292,1.3,3.8,52,0.00,,---,0.00,VWS V14.01,2013-03-15 20:59:00,
2013-03-15 14:04:00,74.5,55.7,30.06,ESE,112,1.3,2.7,52,0.00,,---,0.00,VWS V14.01,2013-03-15 21:04:00,
2013-03-15 14:10:00,74.8,55.5,30.06,NW,315,3.1,3.1,51,0.00,,---,0.00,VWS V14.01,2013-03-15 21:10:00,
2013-03-15 14:15:00,75.2,55.3,30.06,SW,225,6.0,6.0,50,0.00,,---,0.00,VWS V14.01,2013-03-15 21:15:00,
2013-03-15 14:20:00,75.4,55.5,30.06,NNW,338,5.4,5.8,50,0.00,,---,0.00,VWS V14.01,2013-03-15 21:20:00,
2013-03-15 14:25:00,75.9,56.0,30.06,SW,225,3.4,4.0,50,0.00,,---,0.00,VWS V14.01,2013-03-15 21:25:00,
2013-03-15 14:30:00,75.9,55.4,30.06,SSE,158,2.2,5.8,49,0.00,,---,0.00,VWS V14.01,2013-03-15 21:30:00,
2013-03-15 14:35:00,76.5,55.9,30.06,West,270,3.8,4.7,49,0.00,,---,0.00,VWS V14.01,2013-03-15 21:35:00,
2013-03-15 14:40:00,76.8,56.2,30.06,West,270,2.7,5.8,49,0.00,,---,0.00,VWS V14.01,2013-03-15 21:40:00,
2013-03-15 14:45:00,77.2,56.0,30.06,WNW,292,2.7,5.4,48,0.00,,---,0.00,VWS V14.01,2013-03-15 21:45:00,
2013-03-15 14:50:00,77.4,56.2,30.06,NW,315,5.4,5.4,48,0.00,,---,0.00,VWS V14.01,2013-03-15 21:50:00,
2013-03-15 14:55:00,77.9,56.1,30.06,West,270,3.6,8.7,47,0.00,,---,0.00,VWS V14.01,2013-03-15 21:55:00,
2013-03-15 15:01:00,77.5,55.7,30.06,South,180,6.3,6.3,47,0.00,,---,0.00,VWS V14.01,2013-03-15 22:01:00,
2013-03-15 15:06:00,77.5,56.3,30.06,SSE,158,4.7,7.2,48,0.00,,---,0.00,VWS V14.01,2013-03-15 22:06:00,
2013-03-15 15:11:00,77.4,55.6,30.06,SW,225,0.0,4.0,47,0.00,,---,0.00,VWS V14.01,2013-03-15 22:11:00,
2013-03-15 15:16:00,77.2,55.4,30.06,SW,225,2.0,4.9,47,0.00,,---,0.00,VWS V14.01,2013-03-15 22:16:00,
2013-03-15 15:21:00,77.2,55.4,30.03,SSE,158,6.0,6.0,47,0.00,,---,0.00,VWS V14.01,2013-03-15 22:21:00,
2013-03-15 15:26:00,77.2,55.4,30.03,SE,135,1.6,3.4,47,0.00,,---,0.00,VWS V14.01,2013-03-15 22:26:00,
2013-03-15 15:31:00,77.0,54.7,30.03,ESE,112,4.0,4.5,46,0.00,,---,0.00,VWS V14.01,2013-03-15 22:31:00,
2013-03-15 15:36:00,77.2,54.8,30.03,West,270,3.1,4.0,46,0.00,,---,0.00,VWS V14.01,2013-03-15 22:36:00,
2013-03-15 15:41:00,77.4,55.6,30.03,SSE,158,1.1,2.2,47,0.00,,---,0.00,VWS V14.01,2013-03-15 22:41:00,
2013-03-15 15:46:00,77.5,55.7,30.03,SSE,158,1.6,2.7,47,0.00,,---,0.00,VWS V14.01,2013-03-15 22:46:00,
2013-03-15 15:51:00,77.7,56.5,30.03,South,180,2.9,3.1,48,0.00,,---,0.00,VWS V14.01,2013-03-15 22:51:00,
2013-03-15 15:56:00,77.2,54.8,30.03,SW,225,3.1,4.0,46,0.00,,---,0.00,VWS V14.01,2013-03-15 22:56:00,
2013-03-15 16:01:00,77.4,55.6,30.03,WNW,292,0.0,2.7,47,0.00,,---,0.00,VWS V14.01,2013-03-15 23:01:00,
2013-03-15 16:06:00,77.2,55.4,30.03,South,180,3.6,3.6,47,0.00,,---,0.00,VWS V14.01,2013-03-15 23:06:00,
2013-03-15 16:11:00,77.0,54.7,30.03,SSW,202,2.0,2.7,46,0.00,,---,0.00,VWS V14.01,2013-03-15 23:11:00,
2013-03-15 16:16:00,77.2,54.8,30.03,South,180,1.1,2.2,46,0.00,,---,0.00,VWS V14.01,2013-03-15 23:16:00,
2013-03-15 16:22:00,76.6,54.9,30.03,South,180,0.0,3.6,47,0.00,,---,0.00,VWS V14.01,2013-03-15 23:22:00,
2013-03-15 16:27:00,76.5,54.8,30.03,South,180,4.0,4.0,47,0.00,,---,0.00,VWS V14.01,2013-03-15 23:27:00,
2013-03-15 16:32:00,76.1,54.4,30.03,West,270,1.6,4.0,47,0.00,,---,0.00,VWS V14.01,2013-03-15 23:32:00,
2013-03-15 16:37:00,76.1,54.4,30.03,South,180,2.5,2.5,47,0.00,,---,0.00,VWS V14.01,2013-03-15 23:37:00,
2013-03-15 16:44:00,75.4,53.8,30.03,South,180,3.8,3.8,47,0.00,,---,0.00,VWS V14.01,2013-03-15 23:44:00,
2013-03-15 16:49:00,74.8,53.3,30.03,SSE,158,0.9,3.1,47,0.00,,---,0.00,VWS V14.01,2013-03-15 23:49:00,
2013-03-15 16:54:00,74.7,53.7,30.03,South,180,2.9,2.9,48,0.00,,---,0.00,VWS V14.01,2013-03-15 23:54:00,
2013-03-15 16:59:00,74.7,54.2,30.03,WNW,292,4.0,4.0,49,0.00,,---,0.00,VWS V14.01,2013-03-15 23:59:00,
2013-03-15 17:04:00,74.3,53.9,30.03,West,270,2.7,2.9,49,0.00,,---,0.00,VWS V14.01,2013-03-16 00:04:00,
2013-03-15 17:09:00,73.8,53.4,30.03,SW,225,2.2,2.2,49,0.00,,---,0.00,VWS V14.01,2013-03-16 00:09:00,
2013-03-15 17:14:00,73.8,53.4,30.03,West,270,1.3,2.0,49,0.00,,---,0.00,VWS V14.01,2013-03-16 00:14:00,
2013-03-15 17:19:00,73.4,53.1,30.03,WNW,292,0.0,2.9,49,0.00,,---,0.00,VWS V14.01,2013-03-16 00:19:00,
2013-03-15 17:24:00,72.9,52.6,30.03,South,180,2.9,3.4,49,0.00,,---,0.00,VWS V14.01,2013-03-16 00:24:00,
2013-03-15 17:29:00,72.5,52.8,30.03,South,180,1.3,2.2,50,0.00,,---,0.00,VWS V14.01,2013-03-16 00:29:00,
2013-03-15 17:34:00,72.3,53.2,30.03,South,180,1.1,1.6,51,0.00,,---,0.00,VWS V14.01,2013-03-16 00:34:00,
2013-03-15 17:39:00,72.0,52.3,30.03,South,180,2.2,4.3,50,0.00,,---,0.00,VWS V14.01,2013-03-16 00:39:00,
2013-03-15 17:45:00,71.8,52.7,30.03,South,180,1.1,2.2,51,0.00,,---,0.00,VWS V14.01,2013-03-16 00:45:00,
2013-03-15 17:50:00,71.4,52.4,30.03,ESE,112,2.5,2.5,51,0.00,,---,0.00,VWS V14.01,2013-03-16 00:50:00,
2013-03-15 17:55:00,71.1,52.0,30.03,SW,225,1.1,2.5,51,0.00,,---,0.00,VWS V14.01,2013-03-16 00:55:00,
2013-03-15 18:00:00,70.9,52.4,30.03,South,180,1.1,2.5,52,0.00,,---,0.00,VWS V14.01,2013-03-16 01:00:00,
2013-03-15 18:05:00,70.5,52.1,30.00,South,180,0.0,2.5,52,0.00,,---,0.00,VWS V14.01,2013-03-16 01:05:00,
2013-03-15 18:10:00,70.5,52.1,30.00,East,90,1.3,2.5,52,0.00,,---,0.00,VWS V14.01,2013-03-16 01:10:00,
2013-03-15 18:15:00,70.2,51.7,30.00,East,90,0.0,2.2,52,0.00,,---,0.00,VWS V14.01,2013-03-16 01:15:00,
2013-03-15 18:20:00,70.0,51.6,30.00,NNE,22,0.0,1.3,52,0.00,,---,0.00,VWS V14.01,2013-03-16 01:20:00,
2013-03-15 18:25:00,69.4,51.6,30.00,NW,315,1.1,2.0,53,0.00,,---,0.00,VWS V14.01,2013-03-16 01:25:00,
2013-03-15 18:30:00,69.3,51.4,30.00,NNE,22,2.2,2.2,53,0.00,,---,0.00,VWS V14.01,2013-03-16 01:30:00,
2013-03-15 18:35:00,68.7,51.4,30.00,NNW,338,1.1,3.1,54,0.00,,---,0.00,VWS V14.01,2013-03-16 01:35:00,
2013-03-15 18:40:00,68.4,51.1,30.00,NW,315,2.7,4.9,54,0.00,,---,0.00,VWS V14.01,2013-03-16 01:40:00,
2013-03-15 18:45:00,68.0,50.8,30.00,NNW,338,2.0,2.0,54,0.00,,---,0.00,VWS V14.01,2013-03-16 01:45:00,
2013-03-15 18:50:00,67.5,50.8,30.00,NW,315,3.4,3.4,55,0.00,,---,0.00,VWS V14.01,2013-03-16 01:50:00,
2013-03-15 18:55:00,67.3,50.6,30.00,West,270,1.3,3.4,55,0.00,,---,0.00,VWS V14.01,2013-03-16 01:55:00,
2013-03-15 19:00:00,66.9,50.7,30.00,WNW,292,0.0,0.0,56,0.00,,---,0.00,VWS V14.01,2013-03-16 02:00:00,
2013-03-15 19:06:00,66.6,50.4,30.00,West,270,0.0,0.9,56,0.00,,---,0.00,VWS V14.01,2013-03-16 02:06:00,
2013-03-15 19:11:00,66.0,50.4,30.00,West,270,0.0,3.1,57,0.00,,---,0.00,VWS V14.01,2013-03-16 02:11:00,
2013-03-15 19:16:00,65.7,50.0,30.00,West,270,0.0,2.7,57,0.00,,---,0.00,VWS V14.01,2013-03-16 02:16:00,
2013-03-15 19:21:00,65.3,49.7,30.00,NNW,338,0.0,0.9,57,0.00,,---,0.00,VWS V14.01,2013-03-16 02:21:00,
2013-03-15 19:26:00,64.9,49.4,30.00,West,270,0.0,0.0,57,0.00,,---,0.00,VWS V14.01,2013-03-16 02:26:00,
2013-03-15 19:32:00,64.6,49.5,30.00,WNW,292,0.0,0.0,58,0.00,,---,0.00,VWS V14.01,2013-03-16 02:32:00,
2013-03-15 19:37:00,64.2,49.2,30.03,South,180,0.0,1.3,58,0.00,,---,0.00,VWS V14.01,2013-03-16 02:37:00,
2013-03-15 19:42:00,63.9,49.3,30.03,SE,135,2.0,2.0,59,0.00,,---,0.00,VWS V14.01,2013-03-16 02:42:00,
2013-03-15 19:47:00,63.7,49.1,30.03,East,90,2.2,2.2,59,0.00,,---,0.00,VWS V14.01,2013-03-16 02:47:00,
2013-03-15 19:52:00,63.3,48.8,30.00,SE,135,0.0,1.6,59,0.00,,---,0.00,VWS V14.01,2013-03-16 02:52:00,
2013-03-15 19:57:00,63.0,48.9,30.00,SE,135,1.3,1.3,60,0.00,,---,0.00,VWS V14.01,2013-03-16 02:57:00,
2013-03-15 20:03:00,62.8,48.7,30.00,East,90,1.3,1.3,60,0.00,,---,0.00,VWS V14.01,2013-03-16 03:03:00,
2013-03-15 20:08:00,62.4,48.8,30.03,NNE,22,0.0,0.0,61,0.00,,---,0.00,VWS V14.01,2013-03-16 03:08:00,
2013-03-15 20:13:00,62.2,48.2,30.03,West,270,0.0,1.3,60,0.00,,---,0.00,VWS V14.01,2013-03-16 03:13:00,
2013-03-15 20:18:00,61.9,48.3,30.03,SSE,158,0.0,0.0,61,0.00,,---,0.00,VWS V14.01,2013-03-16 03:18:00,
2013-03-15 20:23:00,61.5,48.0,30.00,WSW,248,1.3,1.3,61,0.00,,---,0.00,VWS V14.01,2013-03-16 03:23:00,
2013-03-15 20:28:00,61.2,47.6,30.00,ENE,68,1.1,2.7,61,0.00,,---,0.00,VWS V14.01,2013-03-16 03:28:00,
2013-03-15 20:33:00,60.8,47.3,30.03,NNW,338,2.0,2.2,61,0.00,,---,0.00,VWS V14.01,2013-03-16 03:33:00,
2013-03-15 20:38:00,60.4,46.9,30.03,NE,45,0.0,1.3,61,0.00,,---,0.00,VWS V14.01,2013-03-16 03:38:00,
2013-03-15 20:43:00,60.3,46.8,30.03,NE,45,0.0,0.0,61,0.00,,---,0.00,VWS V14.01,2013-03-16 03:43:00,
2013-03-15 20:48:00,59.9,46.9,30.03,ESE,112,2.0,2.2,62,0.00,,---,0.00,VWS V14.01,2013-03-16 03:48:00,
2013-03-15 20:53:00,59.7,46.7,30.03,SW,225,0.0,1.6,62,0.00,,---,0.00,VWS V14.01,2013-03-16 03:53:00,
2013-03-15 20:58:00,59.4,46.3,30.03,North,0,0.0,1.3,62,0.00,,---,0.00,VWS V14.01,2013-03-16 03:58:00,
2013-03-15 21:00:00,59.4,46.3,30.03,WNW,292,0.0,1.3,62,0.00,,---,0.00,VWS V14.01,2013-03-16 04:00:00,
2013-03-15 21:04:00,59.2,46.2,30.03,SSW,202,0.0,0.0,62,0.00,,---,0.00,VWS V14.01,2013-03-16 04:04:00,
2013-03-15 21:05:00,59.2,46.2,30.03,SSW,202,0.0,0.0,62,0.00,,---,0.00,VWS V14.01,2013-03-16 04:05:00,
2013-03-15 21:06:00,59.0,46.0,30.03,SSW,202,0.0,0.0,62,0.00,,---,0.00,VWS V14.01,2013-03-16 04:06:00,
2013-03-15 21:11:00,58.8,46.3,30.03,ESE,112,2.5,2.7,63,0.00,,---,0.00,VWS V14.01,2013-03-16 04:11:00,
2013-03-15 21:16:00,58.6,46.1,30.03,SE,135,1.6,2.5,63,0.00,,---,0.00,VWS V14.01,2013-03-16 04:16:00,
2013-03-15 21:21:00,58.3,45.8,30.03,SE,135,1.3,2.0,63,0.00,,---,0.00,VWS V14.01,2013-03-16 04:21:00,
2013-03-15 21:26:00,58.1,45.6,30.03,SE,135,0.0,2.0,63,0.00,,---,0.00,VWS V14.01,2013-03-16 04:26:00,
2013-03-15 21:32:00,57.9,45.4,30.03,NNW,338,0.0,0.0,63,0.00,,---,0.00,VWS V14.01,2013-03-16 04:32:00,
2013-03-15 21:37:00,57.6,44.7,30.03,NNE,22,0.0,0.0,62,0.00,,---,0.00,VWS V14.01,2013-03-16 04:37:00,
2013-03-15 21:42:00,57.4,44.9,30.03,NNE,22,0.0,0.0,63,0.00,,---,0.00,VWS V14.01,2013-03-16 04:42:00,
2013-03-15 21:47:00,57.2,44.7,30.03,NNE,22,0.0,0.0,63,0.00,,---,0.00,VWS V14.01,2013-03-16 04:47:00,
2013-03-15 21:52:00,57.0,44.6,30.03,North,0,0.0,0.0,63,0.00,,---,0.00,VWS V14.01,2013-03-16 04:52:00,
2013-03-15 21:57:00,56.8,44.8,30.03,ENE,68,0.0,0.0,64,0.00,,---,0.00,VWS V14.01,2013-03-16 04:57:00,
2013-03-15 22:02:00,56.7,44.6,30.03,NNW,338,0.0,0.0,64,0.00,,---,0.00,VWS V14.01,2013-03-16 05:02:00,
2013-03-15 22:07:00,56.3,44.7,30.03,NW,315,0.0,0.0,65,0.00,,---,0.00,VWS V14.01,2013-03-16 05:07:00,
2013-03-15 22:12:00,56.1,44.5,30.03,South,180,0.0,0.0,65,0.00,,---,0.00,VWS V14.01,2013-03-16 05:12:00,
2013-03-15 22:18:00,55.9,44.4,30.03,ENE,68,0.0,0.0,65,0.00,,---,0.00,VWS V14.01,2013-03-16 05:18:00,
2013-03-15 22:23:00,55.8,44.2,30.03,North,0,0.0,0.0,65,0.00,,---,0.00,VWS V14.01,2013-03-16 05:23:00,
2013-03-15 22:28:00,55.4,43.8,30.03,West,270,0.0,0.0,65,0.00,,---,0.00,VWS V14.01,2013-03-16 05:28:00,
2013-03-15 22:33:00,55.2,44.1,30.03,SE,135,0.0,0.0,66,0.00,,---,0.00,VWS V14.01,2013-03-16 05:33:00,
2013-03-15 22:38:00,55.0,43.9,30.03,SSE,158,0.0,0.0,66,0.00,,---,0.00,VWS V14.01,2013-03-16 05:38:00,
2013-03-15 22:43:00,54.9,44.1,30.03,SE,135,0.0,0.0,67,0.00,,---,0.00,VWS V14.01,2013-03-16 05:43:00,
2013-03-15 22:48:00,54.7,44.0,30.03,East,90,0.0,0.0,67,0.00,,---,0.00,VWS V14.01,2013-03-16 05:48:00,
2013-03-15 22:53:00,54.5,43.4,30.06,East,90,0.0,0.0,66,0.00,,---,0.00,VWS V14.01,2013-03-16 05:53:00,
2013-03-15 22:58:00,54.3,43.6,30.06,ENE,68,0.0,0.0,67,0.00,,---,0.00,VWS V14.01,2013-03-16 05:58:00,
2013-03-15 23:03:00,54.0,42.9,30.03,NE,45,0.0,0.0,66,0.00,,---,0.00,VWS V14.01,2013-03-16 06:03:00,
2013-03-15 23:08:00,53.8,42.7,30.03,WNW,292,0.0,0.0,66,0.00,,---,0.00,VWS V14.01,2013-03-16 06:08:00,
2013-03-15 23:13:00,53.4,42.8,30.03,ENE,68,0.0,0.0,67,0.00,,---,0.00,VWS V14.01,2013-03-16 06:13:00,
2013-03-15 23:18:00,53.4,42.8,30.06,North,0,0.0,0.0,67,0.00,,---,0.00,VWS V14.01,2013-03-16 06:18:00,
2013-03-15 23:23:00,53.2,42.6,30.06,North,0,0.0,0.0,67,0.00,,---,0.00,VWS V14.01,2013-03-16 06:23:00,
2013-03-15 23:28:00,53.1,42.4,30.06,NE,45,0.0,0.0,67,0.00,,---,0.00,VWS V14.01,2013-03-16 06:28:00,
2013-03-15 23:33:00,52.7,42.1,30.06,North,0,0.0,0.0,67,0.00,,---,0.00,VWS V14.01,2013-03-16 06:33:00,
2013-03-15 23:38:00,52.5,41.9,30.06,North,0,0.0,0.0,67,0.00,,---,0.00,VWS V14.01,2013-03-16 06:38:00,
2013-03-15 23:43:00,52.3,42.1,30.06,SSE,158,0.0,0.0,68,0.00,,---,0.00,VWS V14.01,2013-03-16 06:43:00,
2013-03-15 23:48:00,52.2,41.9,30.06,NW,315,0.0,0.0,68,0.00,,---,0.00,VWS V14.01,2013-03-16 06:48:00,
2013-03-15 23:53:00,52.2,41.9,30.06,ENE,68,0.0,0.0,68,0.00,,---,0.00,VWS V14.01,2013-03-16 06:53:00,
2013-03-15 23:59:00,52.0,41.8,30.06,NE,45,0.0,0.0,68,0.00,,---,0.00,VWS V14.01,2013-03-16 06:59:00,